sensor_id;sensor_type;location;lat;lon;timestamp;P1;durP1;ratioP1;P2;durP2;ratioP2
35494;SDS011;75532;49.300;6.846;2024-03-23T00:52:30;3.90;;;3.50;;
35494;SDS011;75532;49.300;6.846;2024-03-23T00:55:31;4.45;;;3.13;;
35494;SDS011;75532;49.300;6.846;2024-03-23T00:58:31;7.05;;;3.53;;
35494;SDS011;75532;49.300;6.846;2024-03-23T01:01:32;5.05;;;3.20;;
35494;SDS011;75532;49.300;6.846;2024-03-23T01:04:32;8.93;;;3.80;;
35494;SDS011;75532;49.300;6.846;2024-03-23T01:07:33;5.65;;;3.45;;
35494;SDS011;75532;49.300;6.846;2024-03-23T01:10:33;4.07;;;3.55;;
35494;SDS011;75532;49.300;6.846;2024-03-23T01:13:34;4.95;;;3.30;;
35494;SDS011;75532;49.300;6.846;2024-03-23T01:16:34;3.78;;;3.40;;
35494;SDS011;75532;49.300;6.846;2024-03-23T01:19:35;4.82;;;3.38;;
35494;SDS011;75532;49.300;6.846;2024-03-23T01:22:36;5.05;;;3.60;;
35494;SDS011;75532;49.300;6.846;2024-03-23T01:25:36;5.47;;;3.35;;
35494;SDS011;75532;49.300;6.846;2024-03-23T01:28:37;5.03;;;3.30;;
35494;SDS011;75532;49.300;6.846;2024-03-23T01:31:37;6.97;;;3.20;;
35494;SDS011;75532;49.300;6.846;2024-03-23T01:34:38;5.95;;;3.63;;
35494;SDS011;75532;49.300;6.846;2024-03-23T01:37:39;3.33;;;2.60;;
35494;SDS011;75532;49.300;6.846;2024-03-23T01:40:39;4.28;;;2.95;;
35494;SDS011;75532;49.300;6.846;2024-03-23T01:43:40;4.05;;;3.00;;
35494;SDS011;75532;49.300;6.846;2024-03-23T01:46:41;4.20;;;2.75;;
35494;SDS011;75532;49.300;6.846;2024-03-23T01:49:42;5.97;;;3.15;;
35494;SDS011;75532;49.300;6.846;2024-03-23T01:52:42;4.63;;;3.05;;
35494;SDS011;75532;49.300;6.846;2024-03-23T01:55:44;3.65;;;3.03;;
35494;SDS011;75532;49.300;6.846;2024-03-23T01:58:44;3.85;;;2.60;;
35494;SDS011;75532;49.300;6.846;2024-03-23T02:01:45;4.03;;;2.65;;
35494;SDS011;75532;49.300;6.846;2024-03-23T02:04:46;5.05;;;3.78;;
35494;SDS011;75532;49.300;6.846;2024-03-23T02:07:46;3.88;;;2.88;;
35494;SDS011;75532;49.300;6.846;2024-03-23T02:10:47;3.40;;;3.10;;
35494;SDS011;75532;49.300;6.846;2024-03-23T02:13:49;5.38;;;2.90;;
35494;SDS011;75532;49.300;6.846;2024-03-23T02:16:50;3.85;;;3.00;;
35494;SDS011;75532;49.300;6.846;2024-03-23T02:19:50;2.80;;;2.47;;
35494;SDS011;75532;49.300;6.846;2024-03-23T02:22:52;2.80;;;2.60;;
35494;SDS011;75532;49.300;6.846;2024-03-23T02:25:53;3.53;;;3.13;;
35494;SDS011;75532;49.300;6.846;2024-03-23T02:28:54;4.82;;;3.15;;
35494;SDS011;75532;49.300;6.846;2024-03-23T02:31:54;3.97;;;3.03;;
35494;SDS011;75532;49.300;6.846;2024-03-23T02:34:55;5.07;;;3.00;;
35494;SDS011;75532;49.300;6.846;2024-03-23T02:37:55;3.45;;;2.80;;
35494;SDS011;75532;49.300;6.846;2024-03-23T02:41:01;3.67;;;2.70;;
35494;SDS011;75532;49.300;6.846;2024-03-23T02:44:04;6.70;;;2.97;;
35494;SDS011;75532;49.300;6.846;2024-03-23T02:47:05;4.25;;;3.03;;
35494;SDS011;75532;49.300;6.846;2024-03-23T02:50:06;3.30;;;2.90;;
35494;SDS011;75532;49.300;6.846;2024-03-23T02:53:07;3.20;;;2.70;;
35494;SDS011;75532;49.300;6.846;2024-03-23T02:56:08;2.60;;;2.40;;
35494;SDS011;75532;49.300;6.846;2024-03-23T02:59:08;3.08;;;2.78;;
35494;SDS011;75532;49.300;6.846;2024-03-23T03:02:09;3.15;;;2.85;;
35494;SDS011;75532;49.300;6.846;2024-03-23T03:05:10;2.85;;;2.65;;
35494;SDS011;75532;49.300;6.846;2024-03-23T03:08:11;4.03;;;3.17;;
35494;SDS011;75532;49.300;6.846;2024-03-23T03:11:11;2.88;;;2.13;;
35494;SDS011;75532;49.300;6.846;2024-03-23T03:14:12;3.70;;;2.60;;
35494;SDS011;75532;49.300;6.846;2024-03-23T03:17:12;2.45;;;2.25;;
35494;SDS011;75532;49.300;6.846;2024-03-23T03:20:13;2.90;;;2.60;;
35494;SDS011;75532;49.300;6.846;2024-03-23T03:23:15;3.40;;;2.22;;
35494;SDS011;75532;49.300;6.846;2024-03-23T03:26:17;3.05;;;2.35;;
35494;SDS011;75532;49.300;6.846;2024-03-23T03:29:18;3.08;;;2.60;;
35494;SDS011;75532;49.300;6.846;2024-03-23T03:32:19;4.20;;;2.58;;
35494;SDS011;75532;49.300;6.846;2024-03-23T03:35:19;4.80;;;2.60;;
35494;SDS011;75532;49.300;6.846;2024-03-23T03:38:20;5.25;;;3.00;;
35494;SDS011;75532;49.300;6.846;2024-03-23T03:41:20;3.17;;;2.42;;
35494;SDS011;75532;49.300;6.846;2024-03-23T03:44:21;2.47;;;2.28;;
35494;SDS011;75532;49.300;6.846;2024-03-23T03:47:22;2.75;;;2.22;;
35494;SDS011;75532;49.300;6.846;2024-03-23T03:50:22;3.03;;;2.72;;
35494;SDS011;75532;49.300;6.846;2024-03-23T03:53:23;3.22;;;2.50;;
35494;SDS011;75532;49.300;6.846;2024-03-23T03:56:24;2.40;;;2.20;;
35494;SDS011;75532;49.300;6.846;2024-03-23T03:59:25;3.05;;;2.70;;
35494;SDS011;75532;49.300;6.846;2024-03-23T04:02:26;3.05;;;2.35;;
35494;SDS011;75532;49.300;6.846;2024-03-23T04:05:27;3.15;;;2.67;;
35494;SDS011;75532;49.300;6.846;2024-03-23T04:08:27;4.80;;;2.42;;
35494;SDS011;75532;49.300;6.846;2024-03-23T04:11:28;4.25;;;2.35;;
35494;SDS011;75532;49.300;6.846;2024-03-23T04:14:28;2.88;;;2.58;;
35494;SDS011;75532;49.300;6.846;2024-03-23T04:17:29;2.28;;;2.00;;
35494;SDS011;75532;49.300;6.846;2024-03-23T04:20:34;3.08;;;2.67;;
35494;SDS011;75532;49.300;6.846;2024-03-23T04:23:34;2.78;;;2.50;;
35494;SDS011;75532;49.300;6.846;2024-03-23T04:26:42;3.53;;;2.40;;
35494;SDS011;75532;49.300;6.846;2024-03-23T04:32:46;4.57;;;1.95;;
35494;SDS011;75532;49.300;6.846;2024-03-23T04:35:49;2.97;;;2.47;;
35494;SDS011;75532;49.300;6.846;2024-03-23T04:38:49;3.13;;;2.30;;
35494;SDS011;75532;49.300;6.846;2024-03-23T04:41:52;3.83;;;2.40;;
35494;SDS011;75532;49.300;6.846;2024-03-23T04:44:53;2.40;;;2.20;;
35494;SDS011;75532;49.300;6.846;2024-03-23T04:47:53;3.72;;;2.25;;
35494;SDS011;75532;49.300;6.846;2024-03-23T04:50:54;2.40;;;2.20;;
35494;SDS011;75532;49.300;6.846;2024-03-23T04:53:57;5.18;;;2.53;;
35494;SDS011;75532;49.300;6.846;2024-03-23T04:56:58;2.20;;;2.03;;
35494;SDS011;75532;49.300;6.846;2024-03-23T04:59:58;3.30;;;2.08;;
35494;SDS011;75532;49.300;6.846;2024-03-23T05:02:59;2.88;;;1.92;;
35494;SDS011;75532;49.300;6.846;2024-03-23T05:05:59;4.40;;;2.83;;
35494;SDS011;75532;49.300;6.846;2024-03-23T05:09:00;2.38;;;2.03;;
35494;SDS011;75532;49.300;6.846;2024-03-23T05:12:07;30.55;;;6.93;;
35494;SDS011;75532;49.300;6.846;2024-03-23T05:15:08;33.75;;;7.15;;
35494;SDS011;75532;49.300;6.846;2024-03-23T05:18:09;32.28;;;6.97;;
35494;SDS011;75532;49.300;6.846;2024-03-23T05:21:10;40.45;;;7.45;;
35494;SDS011;75532;49.300;6.846;2024-03-23T05:24:10;12.48;;;4.90;;
35494;SDS011;75532;49.300;6.846;2024-03-23T05:27:12;11.95;;;3.97;;
35494;SDS011;75532;49.300;6.846;2024-03-23T05:30:12;7.03;;;3.00;;
35494;SDS011;75532;49.300;6.846;2024-03-23T05:33:13;7.85;;;2.90;;
35494;SDS011;75532;49.300;6.846;2024-03-23T05:36:16;10.38;;;3.00;;
35494;SDS011;75532;49.300;6.846;2024-03-23T05:39:17;11.30;;;2.25;;
35494;SDS011;75532;49.300;6.846;2024-03-23T05:42:18;11.85;;;2.47;;
35494;SDS011;75532;49.300;6.846;2024-03-23T05:45:19;7.15;;;2.65;;
35494;SDS011;75532;49.300;6.846;2024-03-23T05:48:19;11.43;;;2.60;;
35494;SDS011;75532;49.300;6.846;2024-03-23T05:51:20;6.25;;;2.13;;
35494;SDS011;75532;49.300;6.846;2024-03-23T05:54:20;12.38;;;2.85;;
35494;SDS011;75532;49.300;6.846;2024-03-23T05:57:21;9.10;;;2.25;;
35494;SDS011;75532;49.300;6.846;2024-03-23T06:00:21;21.63;;;2.78;;
35494;SDS011;75532;49.300;6.846;2024-03-23T06:03:22;20.50;;;3.05;;
35494;SDS011;75532;49.300;6.846;2024-03-23T06:06:23;14.80;;;2.65;;
35494;SDS011;75532;49.300;6.846;2024-03-23T06:09:23;19.73;;;3.08;;
35494;SDS011;75532;49.300;6.846;2024-03-23T06:12:24;18.00;;;3.45;;
35494;SDS011;75532;49.300;6.846;2024-03-23T06:15:25;18.83;;;3.67;;
35494;SDS011;75532;49.300;6.846;2024-03-23T06:18:26;10.63;;;3.20;;
35494;SDS011;75532;49.300;6.846;2024-03-23T06:21:26;11.60;;;2.20;;
35494;SDS011;75532;49.300;6.846;2024-03-23T06:24:27;11.18;;;2.55;;
35494;SDS011;75532;49.300;6.846;2024-03-23T06:27:28;8.68;;;2.17;;
35494;SDS011;75532;49.300;6.846;2024-03-23T06:30:29;5.70;;;2.53;;
35494;SDS011;75532;49.300;6.846;2024-03-23T06:33:29;12.95;;;2.13;;
35494;SDS011;75532;49.300;6.846;2024-03-23T06:36:30;8.85;;;2.20;;
35494;SDS011;75532;49.300;6.846;2024-03-23T06:39:31;13.43;;;2.90;;
35494;SDS011;75532;49.300;6.846;2024-03-23T06:42:31;11.00;;;2.47;;
35494;SDS011;75532;49.300;6.846;2024-03-23T06:45:32;6.53;;;2.13;;
35494;SDS011;75532;49.300;6.846;2024-03-23T06:48:32;17.52;;;3.83;;
35494;SDS011;75532;49.300;6.846;2024-03-23T06:51:34;10.52;;;3.45;;
35494;SDS011;75532;49.300;6.846;2024-03-23T06:54:34;13.10;;;2.67;;
35494;SDS011;75532;49.300;6.846;2024-03-23T06:57:35;15.75;;;3.00;;
35494;SDS011;75532;49.300;6.846;2024-03-23T07:00:35;10.82;;;2.40;;
35494;SDS011;75532;49.300;6.846;2024-03-23T07:03:36;14.00;;;3.10;;
35494;SDS011;75532;49.300;6.846;2024-03-23T07:06:44;10.65;;;2.95;;
35494;SDS011;75532;49.300;6.846;2024-03-23T07:12:45;7.50;;;2.30;;
35494;SDS011;75532;49.300;6.846;2024-03-23T07:15:52;17.08;;;2.65;;
35494;SDS011;75532;49.300;6.846;2024-03-23T07:18:54;4.70;;;2.10;;
35494;SDS011;75532;49.300;6.846;2024-03-23T07:21:55;6.25;;;2.35;;
35494;SDS011;75532;49.300;6.846;2024-03-23T07:24:56;5.13;;;2.13;;
35494;SDS011;75532;49.300;6.846;2024-03-23T07:27:56;6.70;;;2.28;;
35494;SDS011;75532;49.300;6.846;2024-03-23T07:31:15;3.90;;;1.80;;
35494;SDS011;75532;49.300;6.846;2024-03-23T07:34:15;3.42;;;1.90;;
35494;SDS011;75532;49.300;6.846;2024-03-23T07:37:16;7.68;;;2.78;;
35494;SDS011;75532;49.300;6.846;2024-03-23T07:40:17;5.18;;;1.88;;
35494;SDS011;75532;49.300;6.846;2024-03-23T07:43:17;5.72;;;2.20;;
35494;SDS011;75532;49.300;6.846;2024-03-23T07:46:18;11.30;;;2.10;;
35494;SDS011;75532;49.300;6.846;2024-03-23T07:49:19;9.95;;;2.63;;
35494;SDS011;75532;49.300;6.846;2024-03-23T07:52:19;5.25;;;2.00;;
35494;SDS011;75532;49.300;6.846;2024-03-23T07:55:21;6.50;;;2.28;;
35494;SDS011;75532;49.300;6.846;2024-03-23T07:58:22;3.95;;;2.15;;
35494;SDS011;75532;49.300;6.846;2024-03-23T08:01:22;6.88;;;2.85;;
35494;SDS011;75532;49.300;6.846;2024-03-23T08:04:23;5.25;;;1.90;;
35494;SDS011;75532;49.300;6.846;2024-03-23T08:07:24;5.25;;;1.98;;
35494;SDS011;75532;49.300;6.846;2024-03-23T08:10:25;6.50;;;2.05;;
35494;SDS011;75532;49.300;6.846;2024-03-23T08:13:26;6.70;;;2.38;;
35494;SDS011;75532;49.300;6.846;2024-03-23T08:16:27;3.28;;;1.95;;
35494;SDS011;75532;49.300;6.846;2024-03-23T08:19:28;7.05;;;2.20;;
35494;SDS011;75532;49.300;6.846;2024-03-23T08:22:28;3.58;;;1.63;;
35494;SDS011;75532;49.300;6.846;2024-03-23T08:25:32;9.70;;;2.58;;
35494;SDS011;75532;49.300;6.846;2024-03-23T08:28:33;6.18;;;2.10;;
35494;SDS011;75532;49.300;6.846;2024-03-23T08:31:33;6.88;;;2.20;;
35494;SDS011;75532;49.300;6.846;2024-03-23T08:34:34;5.55;;;2.05;;
35494;SDS011;75532;49.300;6.846;2024-03-23T08:37:34;4.63;;;1.92;;
35494;SDS011;75532;49.300;6.846;2024-03-23T08:40:35;4.60;;;1.80;;
35494;SDS011;75532;49.300;6.846;2024-03-23T08:43:36;5.72;;;1.88;;
35494;SDS011;75532;49.300;6.846;2024-03-23T08:46:39;4.85;;;2.08;;
35494;SDS011;75532;49.300;6.846;2024-03-23T08:49:39;3.88;;;1.77;;
35494;SDS011;75532;49.300;6.846;2024-03-23T08:52:40;5.82;;;2.25;;
35494;SDS011;75532;49.300;6.846;2024-03-23T08:55:40;4.65;;;1.48;;
35494;SDS011;75532;49.300;6.846;2024-03-23T08:58:41;3.22;;;1.73;;
35494;SDS011;75532;49.300;6.846;2024-03-23T09:01:42;5.00;;;1.83;;
35494;SDS011;75532;49.300;6.846;2024-03-23T09:04:43;4.68;;;1.55;;
35494;SDS011;75532;49.300;6.846;2024-03-23T09:07:44;1.48;;;1.33;;
35494;SDS011;75532;49.300;6.846;2024-03-23T09:10:45;3.88;;;1.77;;
35494;SDS011;75532;49.300;6.846;2024-03-23T09:13:46;2.92;;;1.70;;
35494;SDS011;75532;49.300;6.846;2024-03-23T09:16:50;5.00;;;1.83;;
35494;SDS011;75532;49.300;6.846;2024-03-23T09:19:51;1.73;;;1.58;;
35494;SDS011;75532;49.300;6.846;2024-03-23T09:22:51;3.55;;;2.03;;
35494;SDS011;75532;49.300;6.846;2024-03-23T09:25:52;3.40;;;1.60;;
35494;SDS011;75532;49.300;6.846;2024-03-23T09:28:53;3.58;;;1.95;;
35494;SDS011;75532;49.300;6.846;2024-03-23T09:31:54;3.65;;;1.52;;
35494;SDS011;75532;49.300;6.846;2024-03-23T09:34:54;3.08;;;1.65;;
35494;SDS011;75532;49.300;6.846;2024-03-23T09:37:55;2.72;;;1.45;;
35494;SDS011;75532;49.300;6.846;2024-03-23T09:40:57;3.03;;;1.73;;
35494;SDS011;75532;49.300;6.846;2024-03-23T09:43:58;1.63;;;1.50;;
35494;SDS011;75532;49.300;6.846;2024-03-23T09:46:59;4.25;;;1.50;;
35494;SDS011;75532;49.300;6.846;2024-03-23T09:50:00;2.35;;;1.42;;
35494;SDS011;75532;49.300;6.846;2024-03-23T09:53:01;3.50;;;1.20;;
35494;SDS011;75532;49.300;6.846;2024-03-23T09:56:02;3.85;;;1.67;;
35494;SDS011;75532;49.300;6.846;2024-03-23T09:59:03;4.03;;;1.17;;
35494;SDS011;75532;49.300;6.846;2024-03-23T10:02:04;2.25;;;1.50;;
35494;SDS011;75532;49.300;6.846;2024-03-23T10:05:15;4.10;;;1.60;;
35494;SDS011;75532;49.300;6.846;2024-03-23T10:08:23;3.70;;;1.50;;
35494;SDS011;75532;49.300;6.846;2024-03-23T10:11:23;1.73;;;1.20;;
35494;SDS011;75532;49.300;6.846;2024-03-23T10:14:28;3.80;;;1.50;;
35494;SDS011;75532;49.300;6.846;2024-03-23T10:17:29;2.70;;;1.48;;
35494;SDS011;75532;49.300;6.846;2024-03-23T10:20:30;2.90;;;1.38;;
35494;SDS011;75532;49.300;6.846;2024-03-23T10:23:30;1.98;;;1.25;;
35494;SDS011;75532;49.300;6.846;2024-03-23T10:26:35;1.80;;;1.40;;
35494;SDS011;75532;49.300;6.846;2024-03-23T10:29:36;2.22;;;1.20;;
35494;SDS011;75532;49.300;6.846;2024-03-23T10:32:37;3.05;;;1.50;;
35494;SDS011;75532;49.300;6.846;2024-03-23T10:35:38;1.45;;;1.27;;
35494;SDS011;75532;49.300;6.846;2024-03-23T10:38:40;1.95;;;1.27;;
35494;SDS011;75532;49.300;6.846;2024-03-23T10:41:41;3.08;;;1.67;;
35494;SDS011;75532;49.300;6.846;2024-03-23T10:44:43;1.63;;;1.33;;
35494;SDS011;75532;49.300;6.846;2024-03-23T10:47:43;4.15;;;1.50;;
35494;SDS011;75532;49.300;6.846;2024-03-23T10:50:44;1.33;;;1.23;;
35494;SDS011;75532;49.300;6.846;2024-03-23T10:53:44;1.83;;;1.20;;
35494;SDS011;75532;49.300;6.846;2024-03-23T10:56:46;1.65;;;1.40;;
35494;SDS011;75532;49.300;6.846;2024-03-23T10:59:48;1.60;;;1.30;;
35494;SDS011;75532;49.300;6.846;2024-03-23T11:02:48;1.33;;;1.23;;
35494;SDS011;75532;49.300;6.846;2024-03-23T11:05:49;1.20;;;1.10;;
35494;SDS011;75532;49.300;6.846;2024-03-23T11:08:50;1.95;;;1.30;;
35494;SDS011;75532;49.300;6.846;2024-03-23T11:11:50;1.77;;;1.08;;
35494;SDS011;75532;49.300;6.846;2024-03-23T11:14:55;2.17;;;1.13;;
35494;SDS011;75532;49.300;6.846;2024-03-23T11:18:10;1.65;;;1.40;;
35494;SDS011;75532;49.300;6.846;2024-03-23T11:21:50;1.73;;;1.00;;
35494;SDS011;75532;49.300;6.846;2024-03-23T11:24:51;1.38;;;1.27;;
35494;SDS011;75532;49.300;6.846;2024-03-23T11:27:58;1.48;;;0.93;;
35494;SDS011;75532;49.300;6.846;2024-03-23T11:31:11;2.13;;;1.30;;
35494;SDS011;75532;49.300;6.846;2024-03-23T11:34:12;2.85;;;1.23;;
35494;SDS011;75532;49.300;6.846;2024-03-23T11:37:13;1.45;;;1.35;;
35494;SDS011;75532;49.300;6.846;2024-03-23T11:40:17;1.15;;;1.05;;
35494;SDS011;75532;49.300;6.846;2024-03-23T11:43:19;1.90;;;1.13;;
35494;SDS011;75532;49.300;6.846;2024-03-23T11:46:22;1.35;;;1.23;;
35494;SDS011;75532;49.300;6.846;2024-03-23T11:49:23;1.58;;;1.27;;
35494;SDS011;75532;49.300;6.846;2024-03-23T11:52:24;1.42;;;1.27;;
35494;SDS011;75532;49.300;6.846;2024-03-23T11:55:25;1.70;;;1.30;;
35494;SDS011;75532;49.300;6.846;2024-03-23T11:58:26;1.42;;;1.27;;
35494;SDS011;75532;49.300;6.846;2024-03-23T12:01:27;1.23;;;1.08;;
35494;SDS011;75532;49.300;6.846;2024-03-23T12:04:28;2.67;;;1.45;;
35494;SDS011;75532;49.300;6.846;2024-03-23T12:07:29;1.10;;;1.00;;
35494;SDS011;75532;49.300;6.846;2024-03-23T12:10:29;1.80;;;1.42;;
35494;SDS011;75532;49.300;6.846;2024-03-23T12:13:30;2.25;;;1.25;;
35494;SDS011;75532;49.300;6.846;2024-03-23T12:16:30;1.98;;;1.20;;
35494;SDS011;75532;49.300;6.846;2024-03-23T12:19:31;1.95;;;1.35;;
35494;SDS011;75532;49.300;6.846;2024-03-23T12:22:32;1.02;;;0.93;;
35494;SDS011;75532;49.300;6.846;2024-03-23T12:25:34;0.80;;;0.80;;
35494;SDS011;75532;49.300;6.846;2024-03-23T12:28:36;2.10;;;1.02;;
35494;SDS011;75532;49.300;6.846;2024-03-23T12:31:37;2.08;;;1.33;;
35494;SDS011;75532;49.300;6.846;2024-03-23T12:34:38;0.95;;;0.80;;
35494;SDS011;75532;49.300;6.846;2024-03-23T12:37:38;1.38;;;1.10;;
35494;SDS011;75532;49.300;6.846;2024-03-23T12:40:39;1.80;;;1.10;;
35494;SDS011;75532;49.300;6.846;2024-03-23T12:43:41;2.75;;;1.05;;
35494;SDS011;75532;49.300;6.846;2024-03-23T12:46:41;1.60;;;1.05;;
35494;SDS011;75532;49.300;6.846;2024-03-23T12:49:42;1.98;;;1.33;;
35494;SDS011;75532;49.300;6.846;2024-03-23T12:52:43;3.05;;;1.17;;
35494;SDS011;75532;49.300;6.846;2024-03-23T12:55:43;1.15;;;1.00;;
35494;SDS011;75532;49.300;6.846;2024-03-23T12:58:44;1.38;;;1.25;;
35494;SDS011;75532;49.300;6.846;2024-03-23T13:01:45;1.33;;;1.20;;
35494;SDS011;75532;49.300;6.846;2024-03-23T13:04:54;1.30;;;1.20;;
35494;SDS011;75532;49.300;6.846;2024-03-23T13:07:55;2.05;;;1.30;;
35494;SDS011;75532;49.300;6.846;2024-03-23T13:10:56;2.15;;;1.23;;
35494;SDS011;75532;49.300;6.846;2024-03-23T13:13:57;2.03;;;1.35;;
35494;SDS011;75532;49.300;6.846;2024-03-23T13:16:58;1.50;;;1.10;;
35494;SDS011;75532;49.300;6.846;2024-03-23T13:19:58;1.77;;;1.02;;
35494;SDS011;75532;49.300;6.846;2024-03-23T13:22:59;1.75;;;0.90;;
35494;SDS011;75532;49.300;6.846;2024-03-23T13:25:59;1.50;;;0.98;;
35494;SDS011;75532;49.300;6.846;2024-03-23T13:29:00;1.80;;;1.00;;
35494;SDS011;75532;49.300;6.846;2024-03-23T13:32:01;1.73;;;0.95;;
35494;SDS011;75532;49.300;6.846;2024-03-23T13:35:01;1.02;;;0.73;;
35494;SDS011;75532;49.300;6.846;2024-03-23T13:38:02;1.95;;;0.98;;
35494;SDS011;75532;49.300;6.846;2024-03-23T13:41:03;0.80;;;0.80;;
35494;SDS011;75532;49.300;6.846;2024-03-23T13:44:07;0.80;;;0.70;;
35494;SDS011;75532;49.300;6.846;2024-03-23T13:47:08;1.02;;;0.90;;
35494;SDS011;75532;49.300;6.846;2024-03-23T13:50:08;2.45;;;1.50;;
35494;SDS011;75532;49.300;6.846;2024-03-23T13:53:09;1.65;;;1.08;;
35494;SDS011;75532;49.300;6.846;2024-03-23T13:56:10;1.58;;;1.13;;
35494;SDS011;75532;49.300;6.846;2024-03-23T13:59:10;0.95;;;0.90;;
35494;SDS011;75532;49.300;6.846;2024-03-23T14:02:11;3.65;;;1.00;;
35494;SDS011;75532;49.300;6.846;2024-03-23T14:05:14;1.15;;;0.77;;
35494;SDS011;75532;49.300;6.846;2024-03-23T14:08:15;1.10;;;0.85;;
35494;SDS011;75532;49.300;6.846;2024-03-23T14:11:15;1.48;;;1.20;;
35494;SDS011;75532;49.300;6.846;2024-03-23T14:14:18;1.10;;;1.00;;
35494;SDS011;75532;49.300;6.846;2024-03-23T14:17:21;1.23;;;0.80;;
35494;SDS011;75532;49.300;6.846;2024-03-23T14:20:22;1.15;;;0.98;;
35494;SDS011;75532;49.300;6.846;2024-03-23T14:23:22;1.95;;;1.00;;
35494;SDS011;75532;49.300;6.846;2024-03-23T14:26:23;3.90;;;1.00;;
35494;SDS011;75532;49.300;6.846;2024-03-23T14:29:24;1.55;;;0.85;;
35494;SDS011;75532;49.300;6.846;2024-03-23T14:32:24;0.60;;;0.60;;
35494;SDS011;75532;49.300;6.846;2024-03-23T14:35:25;1.38;;;0.95;;
35494;SDS011;75532;49.300;6.846;2024-03-23T14:38:26;1.67;;;0.85;;
35494;SDS011;75532;49.300;6.846;2024-03-23T14:41:27;1.77;;;0.80;;
35494;SDS011;75532;49.300;6.846;2024-03-23T14:44:28;1.10;;;0.75;;
35494;SDS011;75532;49.300;6.846;2024-03-23T14:47:28;1.67;;;1.05;;
35494;SDS011;75532;49.300;6.846;2024-03-23T14:50:29;1.05;;;0.90;;
35494;SDS011;75532;49.300;6.846;2024-03-23T14:53:30;0.63;;;0.60;;
35494;SDS011;75532;49.300;6.846;2024-03-23T14:56:31;0.80;;;0.80;;
35494;SDS011;75532;49.300;6.846;2024-03-23T14:59:32;2.03;;;0.60;;
35494;SDS011;75532;49.300;6.846;2024-03-23T15:02:32;0.73;;;0.73;;
35494;SDS011;75532;49.300;6.846;2024-03-23T15:05:33;0.60;;;0.60;;
35494;SDS011;75532;49.300;6.846;2024-03-23T15:08:34;1.15;;;0.77;;
35494;SDS011;75532;49.300;6.846;2024-03-23T15:11:34;1.15;;;0.90;;
35494;SDS011;75532;49.300;6.846;2024-03-23T15:14:35;1.10;;;0.90;;
35494;SDS011;75532;49.300;6.846;2024-03-23T15:17:35;1.10;;;1.00;;
35494;SDS011;75532;49.300;6.846;2024-03-23T15:20:41;0.82;;;0.77;;
35494;SDS011;75532;49.300;6.846;2024-03-23T15:23:42;1.00;;;0.65;;
35494;SDS011;75532;49.300;6.846;2024-03-23T15:26:43;1.00;;;0.75;;
35494;SDS011;75532;49.300;6.846;2024-03-23T15:29:44;1.17;;;0.90;;
35494;SDS011;75532;49.300;6.846;2024-03-23T15:32:46;0.85;;;0.70;;
35494;SDS011;75532;49.300;6.846;2024-03-23T15:35:47;1.38;;;0.95;;
35494;SDS011;75532;49.300;6.846;2024-03-23T15:38:47;0.70;;;0.70;;
35494;SDS011;75532;49.300;6.846;2024-03-23T15:41:49;1.10;;;0.90;;
35494;SDS011;75532;49.300;6.846;2024-03-23T15:44:49;1.55;;;0.80;;
35494;SDS011;75532;49.300;6.846;2024-03-23T15:47:50;0.82;;;0.80;;
35494;SDS011;75532;49.300;6.846;2024-03-23T15:50:52;0.80;;;0.70;;
35494;SDS011;75532;49.300;6.846;2024-03-23T15:53:53;1.20;;;0.95;;
35494;SDS011;75532;49.300;6.846;2024-03-23T15:56:57;1.30;;;1.02;;
35494;SDS011;75532;49.300;6.846;2024-03-23T15:59:57;0.95;;;0.85;;
35494;SDS011;75532;49.300;6.846;2024-03-23T16:02:58;0.60;;;0.60;;
35494;SDS011;75532;49.300;6.846;2024-03-23T16:05:59;1.33;;;0.90;;
35494;SDS011;75532;49.300;6.846;2024-03-23T16:09:01;0.95;;;0.77;;
35494;SDS011;75532;49.300;6.846;2024-03-23T16:12:03;1.25;;;0.82;;
35494;SDS011;75532;49.300;6.846;2024-03-23T16:15:04;1.15;;;0.70;;
35494;SDS011;75532;49.300;6.846;2024-03-23T16:18:05;0.65;;;0.65;;
35494;SDS011;75532;49.300;6.846;2024-03-23T16:21:06;0.60;;;0.55;;
35494;SDS011;75532;49.300;6.846;2024-03-23T16:24:07;0.80;;;0.70;;
35494;SDS011;75532;49.300;6.846;2024-03-23T16:27:11;0.80;;;0.73;;
35494;SDS011;75532;49.300;6.846;2024-03-23T16:30:11;0.68;;;0.57;;
35494;SDS011;75532;49.300;6.846;2024-03-23T16:33:13;0.73;;;0.50;;
35494;SDS011;75532;49.300;6.846;2024-03-23T16:36:13;0.98;;;0.60;;
35494;SDS011;75532;49.300;6.846;2024-03-23T16:39:14;0.73;;;0.60;;
35494;SDS011;75532;49.300;6.846;2024-03-23T16:42:15;1.27;;;0.73;;
35494;SDS011;75532;49.300;6.846;2024-03-23T16:45:16;0.93;;;0.68;;
35494;SDS011;75532;49.300;6.846;2024-03-23T16:48:16;0.60;;;0.60;;
35494;SDS011;75532;49.300;6.846;2024-03-23T16:51:17;1.25;;;0.77;;
35494;SDS011;75532;49.300;6.846;2024-03-23T16:54:18;0.40;;;0.32;;
35494;SDS011;75532;49.300;6.846;2024-03-23T16:57:18;0.73;;;0.70;;
35494;SDS011;75532;49.300;6.846;2024-03-23T17:00:19;0.80;;;0.80;;
35494;SDS011;75532;49.300;6.846;2024-03-23T17:03:19;1.08;;;0.73;;
35494;SDS011;75532;49.300;6.846;2024-03-23T17:06:20;0.52;;;0.50;;
35494;SDS011;75532;49.300;6.846;2024-03-23T17:09:23;0.57;;;0.52;;
35494;SDS011;75532;49.300;6.846;2024-03-23T17:12:23;0.80;;;0.60;;
35494;SDS011;75532;49.300;6.846;2024-03-23T17:15:24;0.93;;;0.70;;
35494;SDS011;75532;49.300;6.846;2024-03-23T17:18:25;0.50;;;0.50;;
35494;SDS011;75532;49.300;6.846;2024-03-23T17:21:25;0.88;;;0.68;;
35494;SDS011;75532;49.300;6.846;2024-03-23T17:24:27;0.65;;;0.65;;
35494;SDS011;75532;49.300;6.846;2024-03-23T17:27:28;0.80;;;0.57;;
35494;SDS011;75532;49.300;6.846;2024-03-23T17:30:28;1.00;;;0.80;;
35494;SDS011;75532;49.300;6.846;2024-03-23T17:33:31;1.02;;;0.85;;
35494;SDS011;75532;49.300;6.846;2024-03-23T17:36:32;0.90;;;0.60;;
35494;SDS011;75532;49.300;6.846;2024-03-23T17:39:32;0.52;;;0.52;;
35494;SDS011;75532;49.300;6.846;2024-03-23T17:42:34;1.15;;;0.60;;
35494;SDS011;75532;49.300;6.846;2024-03-23T17:45:35;0.80;;;0.80;;
35494;SDS011;75532;49.300;6.846;2024-03-23T17:48:36;0.50;;;0.50;;
35494;SDS011;75532;49.300;6.846;2024-03-23T17:51:36;1.30;;;0.60;;
35494;SDS011;75532;49.300;6.846;2024-03-23T17:54:38;0.65;;;0.65;;
35494;SDS011;75532;49.300;6.846;2024-03-23T17:57:39;0.73;;;0.55;;
35494;SDS011;75532;49.300;6.846;2024-03-23T18:00:40;0.60;;;0.60;;
35494;SDS011;75532;49.300;6.846;2024-03-23T18:03:40;0.70;;;0.70;;
35494;SDS011;75532;49.300;6.846;2024-03-23T18:06:41;0.77;;;0.68;;
35494;SDS011;75532;49.300;6.846;2024-03-23T18:09:41;0.40;;;0.40;;
35494;SDS011;75532;49.300;6.846;2024-03-23T18:12:43;0.65;;;0.60;;
35494;SDS011;75532;49.300;6.846;2024-03-23T18:15:46;0.77;;;0.70;;
35494;SDS011;75532;49.300;6.846;2024-03-23T18:18:55;0.40;;;0.40;;
35494;SDS011;75532;49.300;6.846;2024-03-23T18:21:55;0.70;;;0.50;;
35494;SDS011;75532;49.300;6.846;2024-03-23T18:24:56;0.93;;;0.70;;
35494;SDS011;75532;49.300;6.846;2024-03-23T18:27:57;0.60;;;0.60;;
35494;SDS011;75532;49.300;6.846;2024-03-23T18:30:59;0.63;;;0.63;;
35494;SDS011;75532;49.300;6.846;2024-03-23T18:34:00;0.50;;;0.50;;
35494;SDS011;75532;49.300;6.846;2024-03-23T18:37:01;0.47;;;0.45;;
35494;SDS011;75532;49.300;6.846;2024-03-23T18:40:02;1.10;;;0.80;;
35494;SDS011;75532;49.300;6.846;2024-03-23T18:43:02;0.63;;;0.60;;
35494;SDS011;75532;49.300;6.846;2024-03-23T18:46:03;0.85;;;0.85;;
35494;SDS011;75532;49.300;6.846;2024-03-23T18:49:04;0.70;;;0.70;;
35494;SDS011;75532;49.300;6.846;2024-03-23T18:52:04;0.73;;;0.73;;
35494;SDS011;75532;49.300;6.846;2024-03-23T18:55:07;0.77;;;0.70;;
35494;SDS011;75532;49.300;6.846;2024-03-23T18:58:09;0.70;;;0.70;;
35494;SDS011;75532;49.300;6.846;2024-03-23T19:01:09;1.20;;;0.82;;
35494;SDS011;75532;49.300;6.846;2024-03-23T19:04:10;0.98;;;0.63;;
35494;SDS011;75532;49.300;6.846;2024-03-23T19:07:11;0.80;;;0.80;;